createdAt,value
2023-04-01T00:00:35.417Z,98304.88
2023-04-01T00:05:39.668Z,98291.38
2023-04-01T00:10:42.539Z,98300.75
2023-04-01T00:15:45.882Z,98297.97
2023-04-01T00:20:51.775Z,98297.31
2023-04-01T00:25:54.546Z,98302.75
2023-04-01T00:30:57.321Z,98292.03
2023-04-01T00:36:10.783Z,98294.38
2023-04-01T00:41:16.519Z,98287.88
2023-04-01T00:46:19.853Z,98277.28
2023-04-01T00:51:27.999Z,98280.78
2023-04-01T00:56:34.867Z,98285.97
2023-04-01T01:01:38.028Z,98277.78
2023-04-01T01:06:53.242Z,98291.97
2023-04-01T01:12:03.835Z,98285.47
2023-04-01T01:17:16.045Z,98285.16
2023-04-01T01:22:36.790Z,98276.22
2023-04-01T01:27:42.658Z,98292.09
2023-04-01T01:33:13.966Z,98275.41
2023-04-01T01:38:19.911Z,98265.50
2023-04-01T01:43:34.443Z,98271.16
2023-04-01T01:48:38.216Z,98267.94
2023-04-01T01:53:42.360Z,98268.53
2023-04-01T01:58:49.546Z,98260.47
2023-04-01T02:03:57.480Z,98271.34
2023-04-01T02:09:04.739Z,98268.69
2023-04-01T02:14:12.671Z,98271.50
2023-04-01T02:19:23.399Z,98261.59
2023-04-01T02:24:32.559Z,98267.50
2023-04-01T02:29:35.493Z,98272.63
2023-04-01T02:34:38.918Z,98269.22
2023-04-01T02:39:43.660Z,98268.69
2023-04-01T02:44:46.732Z,98264.41
2023-04-01T02:49:50.340Z,98275.22
2023-04-01T02:54:54.930Z,98270.78
2023-04-01T02:59:57.827Z,98271.19
2023-04-01T03:05:00.606Z,98273.41
2023-04-01T03:10:05.063Z,98271.09
2023-04-01T03:15:10.600Z,98287.13
2023-04-01T03:20:15.970Z,98268.47
2023-04-01T03:25:20.480Z,98282.19
2023-04-01T03:30:23.684Z,98288.00
2023-04-01T03:35:27.529Z,98282.69
2023-04-01T03:40:31.708Z,98289.03
2023-04-01T03:45:34.804Z,98285.13
2023-04-01T03:50:37.840Z,98289.53
2023-04-01T03:55:42.020Z,98295.31
2023-04-01T04:00:44.852Z,98298.16
2023-04-01T04:05:49.459Z,98295.19
2023-04-01T04:10:58.246Z,98297.41
2023-04-01T04:16:01.644Z,98300.69
2023-04-01T04:21:06.128Z,98301.25
2023-04-01T04:26:12.400Z,98301.25
2023-04-01T04:31:20.907Z,98300.59
2023-04-01T04:36:24.509Z,98300.41
2023-04-01T04:41:29.967Z,98296.22
2023-04-01T04:46:32.929Z,98297.00
2023-04-01T04:51:47.689Z,98302.69
2023-04-01T04:56:54.835Z,98303.19
2023-04-01T05:01:59.266Z,98316.50
2023-04-01T05:07:02.035Z,98310.47
2023-04-01T05:12:07.017Z,98314.94
2023-04-01T05:17:41.931Z,98321.75
2023-04-01T05:22:46.308Z,98321.22
2023-04-01T05:27:50.552Z,98325.25
2023-04-01T05:32:53.470Z,98333.84
2023-04-01T05:37:56.564Z,98327.41
2023-04-01T05:43:01.405Z,98334.91
2023-04-01T05:48:04.547Z,98334.22
2023-04-01T05:53:14.242Z,98341.41
2023-04-01T05:58:20.782Z,98344.03
2023-04-01T06:03:24.532Z,98344.91
2023-04-01T06:08:27.740Z,98346.50
2023-04-01T06:13:50.057Z,98340.00
2023-04-01T06:19:02.845Z,98356.72
2023-04-01T06:24:24.314Z,98361.59
2023-04-01T06:29:45.363Z,98363.94
2023-04-01T06:35:14.531Z,98367.41
2023-04-01T06:40:53.558Z,98372.59
2023-04-01T06:46:06.781Z,98382.72
2023-04-01T06:51:37.256Z,98384.44
2023-04-01T06:57:04.504Z,98384.53
2023-04-01T07:02:24.807Z,98381.69
2023-04-01T07:07:35.601Z,98397.56
2023-04-01T07:12:48.231Z,98393.75
2023-04-01T07:18:32.431Z,98408.44
2023-04-01T07:23:42.986Z,98407.91
2023-04-01T07:28:59.336Z,98412.97
2023-04-01T07:34:25.194Z,98413.63
2023-04-01T07:39:37.262Z,98417.28
2023-04-01T07:45:00.798Z,98418.69
2023-04-01T07:50:15.713Z,98431.88
2023-04-01T07:55:24.909Z,98430.69
2023-04-01T08:00:35.438Z,98436.53
2023-04-01T08:05:57.814Z,98439.91
2023-04-01T08:11:11.884Z,98452.84
2023-04-01T08:16:40.618Z,98459.09
2023-04-01T08:21:51.758Z,98449.44
2023-04-01T08:26:59.274Z,98459.75
2023-04-01T08:32:08.694Z,98472.25
2023-04-01T08:37:19.521Z,98474.91
2023-04-01T08:42:53.527Z,98478.09
2023-04-01T08:48:19.363Z,98480.03
2023-04-01T08:53:44.012Z,98486.09
2023-04-01T08:59:08.370Z,98490.34
2023-04-01T09:04:33.802Z,98490.00
2023-04-01T09:10:07.883Z,98484.19
2023-04-01T09:15:54.597Z,98499.16
2023-04-01T09:21:22.492Z,98499.69
2023-04-01T09:26:51.349Z,98498.25
2023-04-01T09:32:18.151Z,98505.19
2023-04-01T09:37:36.534Z,98515.09
2023-04-01T09:42:57.796Z,98521.97
2023-04-01T09:48:18.166Z,98522.19
2023-04-01T09:53:36.865Z,98525.13
2023-04-01T09:59:11.744Z,98533.44
2023-04-01T10:05:00.649Z,98532.47
2023-04-01T10:10:36.422Z,98538.50
2023-04-01T10:16:06.141Z,98544.00
2023-04-01T10:21:38.894Z,98547.91
2023-04-01T10:27:04.309Z,98540.88
2023-04-01T10:32:47.722Z,98546.72
2023-04-01T10:38:28.465Z,98562.59
2023-04-01T10:44:04.667Z,98554.66
2023-04-01T10:49:46.454Z,98564.25
2023-04-01T10:55:00.560Z,98560.97
2023-04-01T11:01:09.780Z,98566.16
2023-04-01T11:07:22.904Z,98565.72
2023-04-01T11:13:02.280Z,98555.34
2023-04-01T11:18:59.727Z,98569.91
2023-04-01T11:24:26.836Z,98579.16
2023-04-01T11:30:09.073Z,98585.72
2023-04-01T11:35:42.553Z,98580.47
2023-04-01T11:40:53.529Z,98593.59
2023-04-01T11:46:25.741Z,98587.38
2023-04-01T11:51:41.684Z,98602.94
2023-04-01T11:57:02.283Z,98609.13
2023-04-01T12:02:14.843Z,98603.13
2023-04-01T12:07:24.820Z,98617.28
2023-04-01T12:12:34.811Z,98615.22
2023-04-01T12:17:46.453Z,98621.66
2023-04-01T12:22:55.594Z,98625.41
2023-04-01T12:28:16.551Z,98633.63
2023-04-01T12:33:34.135Z,98642.66
2023-04-01T12:38:46.673Z,98650.22
2023-04-01T12:44:15.141Z,98645.50
2023-04-01T12:49:36.372Z,98641.66
2023-04-01T12:55:23.179Z,98655.16
2023-04-01T13:00:44.522Z,98659.19
2023-04-01T13:06:20.936Z,98666.91
2023-04-01T13:11:41.425Z,98675.91
2023-04-01T13:16:54.373Z,98681.53
2023-04-01T13:22:04.428Z,98691.25
2023-04-01T13:27:16.739Z,98689.22
2023-04-01T13:32:43.242Z,98693.50
2023-04-01T13:37:59.612Z,98688.50
2023-04-01T13:43:06.110Z,98700.97
2023-04-01T13:48:32.912Z,98699.28
2023-04-01T13:54:05.921Z,98703.75
2023-04-01T13:59:38.207Z,98713.72
2023-04-01T14:04:51.924Z,98719.84
2023-04-01T14:10:08.031Z,98735.75
2023-04-01T14:15:29.489Z,98732.16
2023-04-01T14:20:42.403Z,98748.69
2023-04-01T14:26:09.670Z,98755.81
2023-04-01T14:31:36.573Z,98755.41
2023-04-01T14:37:03.359Z,98768.84
2023-04-01T14:42:25.973Z,98778.66
2023-04-01T14:47:52.759Z,98772.28
2023-04-01T14:53:01.721Z,98787.13
2023-04-01T14:58:12.934Z,98786.00
2023-04-01T15:03:21.120Z,98797.06
2023-04-01T15:08:29.583Z,98802.78
2023-04-01T15:13:53.261Z,98808.00
2023-04-01T15:19:07.387Z,98823.16
2023-04-01T15:24:22.508Z,98828.84
2023-04-01T15:29:41.709Z,98838.63
2023-04-01T15:34:51.978Z,98855.97
2023-04-01T15:40:04.276Z,98867.72
2023-04-01T15:45:18.715Z,98861.94
2023-04-01T15:50:56.478Z,98879.16
2023-04-01T15:56:12.900Z,98887.50
2023-04-01T16:01:26.338Z,98888.16
2023-04-01T16:06:54.631Z,98900.94
2023-04-01T16:12:07.111Z,98903.34
2023-04-01T16:17:35.076Z,98910.91
2023-04-01T16:22:41.934Z,98920.16
2023-04-01T16:27:54.826Z,98931.88
2023-04-01T16:33:05.928Z,98931.19
2023-04-01T16:38:17.739Z,98952.66
2023-04-01T16:43:30.355Z,98960.78
2023-04-01T16:48:51.812Z,98966.59
2023-04-01T16:54:07.687Z,98980.38
2023-04-01T16:59:23.239Z,98997.22
2023-04-01T17:04:35.341Z,99008.50
2023-04-01T17:09:51.985Z,99022.44
2023-04-01T17:15:05.834Z,99042.25
2023-04-01T17:20:36.936Z,99045.25
2023-04-01T17:25:59.981Z,99065.31
2023-04-01T17:31:12.788Z,99075.69
2023-04-01T17:36:27.080Z,99086.56
2023-04-01T17:41:38.620Z,99105.41
2023-04-01T17:47:02.205Z,99115.88
2023-04-01T17:52:17.582Z,99128.13
2023-04-01T17:57:41.957Z,99142.31
2023-04-01T18:02:58.357Z,99164.28
2023-04-01T18:08:14.519Z,99173.03
2023-04-01T18:13:29.081Z,99176.13
2023-04-01T18:18:52.120Z,99192.59
2023-04-01T18:24:02.581Z,99218.41
2023-04-01T18:29:18.946Z,99237.41
2023-04-01T18:34:42.033Z,99254.84
2023-04-01T18:39:50.940Z,99261.09
2023-04-01T18:44:58.395Z,99275.44
2023-04-01T18:50:15.931Z,99291.31
2023-04-01T18:55:32.539Z,99299.91
2023-04-01T19:00:41.505Z,99321.91
2023-04-01T19:05:49.272Z,99327.63
2023-04-01T19:11:04.242Z,99333.66
2023-04-01T19:16:16.246Z,99351.19
2023-04-01T19:21:23.436Z,99356.13
2023-04-01T19:26:31.951Z,99376.81
2023-04-01T19:31:50.282Z,99386.66
2023-04-01T19:36:58.659Z,99397.03
2023-04-01T19:42:13.705Z,99394.44
2023-04-01T19:47:22.874Z,99413.47
2023-04-01T19:52:33.719Z,99431.44
2023-04-01T19:57:44.014Z,99441.53
2023-04-01T20:02:58.829Z,99452.69
2023-04-01T20:08:13.551Z,99460.69
2023-04-01T20:13:27.408Z,99475.00
2023-04-01T20:18:40.268Z,99479.13
2023-04-01T20:23:49.606Z,99507.75
2023-04-01T20:29:12.069Z,99507.75
2023-04-01T20:34:32.150Z,99530.78
2023-04-01T20:40:04.716Z,99540.69
2023-04-01T20:45:24.606Z,99544.91
2023-04-01T20:50:31.685Z,99560.31
2023-04-01T20:56:21.602Z,99574.50
2023-04-01T21:01:37.525Z,99582.19
2023-04-01T21:06:54.643Z,99594.41
2023-04-01T21:12:11.854Z,99606.53
2023-04-01T21:17:24.680Z,99627.56
2023-04-01T21:23:03.241Z,99631.53
2023-04-01T21:28:22.038Z,99643.56
2023-04-01T21:33:39.587Z,99658.31
2023-04-01T21:38:54.918Z,99667.25
2023-04-01T21:44:34.838Z,99682.19
2023-04-01T21:50:05.239Z,99689.88
2023-04-01T21:56:01.035Z,99714.47
2023-04-01T22:01:23.856Z,99728.09
2023-04-01T22:06:35.686Z,99729.50
2023-04-01T22:11:50.406Z,99745.66
2023-04-01T22:16:58.952Z,99750.41
2023-04-01T22:22:10.392Z,99759.66
2023-04-01T22:27:20.558Z,99764.84
2023-04-01T22:32:30.395Z,99777.59
2023-04-01T22:37:39.412Z,99780.47
2023-04-01T22:42:45.545Z,99787.41
2023-04-01T22:48:02.312Z,99805.44
2023-04-01T22:53:16.124Z,99822.59
2023-04-01T22:58:23.742Z,99824.38
2023-04-01T23:03:32.290Z,99838.41
2023-04-01T23:08:57.748Z,99854.69
2023-04-01T23:14:19.430Z,99863.94
2023-04-01T23:19:28.926Z,99879.13
2023-04-01T23:24:37.320Z,99883.00
2023-04-01T23:29:43.599Z,99901.16
2023-04-01T23:34:51.452Z,99902.22
2023-04-01T23:39:56.188Z,99926.81
2023-04-01T23:45:01.523Z,99934.97
2023-04-01T23:50:12.825Z,99942.94
2023-04-01T23:55:19.939Z,99948.06
